createdAt,value
2022-08-19T00:00:50.930Z,17.51
2022-08-19T00:01:53.455Z,17.48
2022-08-19T00:02:50.671Z,17.48
2022-08-19T00:03:50.755Z,17.54
2022-08-19T00:04:50.990Z,17.54
2022-08-19T00:05:51.043Z,17.62
2022-08-19T00:06:51.202Z,17.55
2022-08-19T00:07:51.367Z,17.46
2022-08-19T00:08:51.557Z,17.47
2022-08-19T00:09:52.430Z,17.43
2022-08-19T00:10:51.899Z,17.38
2022-08-19T00:11:52.056Z,17.35
2022-08-19T00:12:52.398Z,17.46
2022-08-19T00:13:52.417Z,17.28
2022-08-19T00:14:52.593Z,17.38
2022-08-19T00:15:52.767Z,17.26
2022-08-19T00:16:52.916Z,17.33
2022-08-19T00:17:53.099Z,17.33
2022-08-19T00:18:53.941Z,17.33
2022-08-19T00:19:53.475Z,17.32
2022-08-19T00:20:53.644Z,17.44
2022-08-19T00:21:53.836Z,17.30
2022-08-19T00:22:54.650Z,17.38
2022-08-19T00:23:54.241Z,17.43
2022-08-19T00:24:54.392Z,17.30
2022-08-19T00:25:54.501Z,17.44
2022-08-19T00:26:54.664Z,17.46
2022-08-19T00:27:55.436Z,17.47
2022-08-19T00:28:54.947Z,17.43
2022-08-19T00:29:55.150Z,17.44
2022-08-19T00:30:55.939Z,17.46
2022-08-19T00:31:55.471Z,17.54
2022-08-19T00:32:56.437Z,17.54
2022-08-19T00:33:55.811Z,17.43
2022-08-19T00:34:55.976Z,17.48
2022-08-19T00:35:56.354Z,17.47
2022-08-19T00:36:56.268Z,17.46
2022-08-19T00:37:56.416Z,17.46
2022-08-19T00:38:56.554Z,17.41
2022-08-19T00:39:56.817Z,17.35
2022-08-19T00:40:56.830Z,17.32
2022-08-19T00:41:57.050Z,17.29
2022-08-19T00:42:57.155Z,17.32
2022-08-19T00:43:57.316Z,17.25
2022-08-19T00:44:57.499Z,17.29
2022-08-19T00:45:57.667Z,17.26
2022-08-19T00:46:58.625Z,17.30
2022-08-19T00:47:57.989Z,17.29
2022-08-19T00:48:58.939Z,17.32
2022-08-19T00:49:59.322Z,17.29
2022-08-19T00:50:58.412Z,17.28
2022-08-19T00:51:58.574Z,17.26
2022-08-19T00:52:58.715Z,17.30
2022-08-19T00:53:58.851Z,17.25
2022-08-19T00:54:58.969Z,17.26
2022-08-19T00:55:59.086Z,17.22
2022-08-19T00:56:59.245Z,17.20
2022-08-19T00:57:59.370Z,17.15
2022-08-19T00:59:00.446Z,17.26
2022-08-19T01:00:02.212Z,17.26
2022-08-19T01:00:59.895Z,17.20
2022-08-19T01:02:00.089Z,17.20
2022-08-19T01:03:00.196Z,17.15
2022-08-19T01:04:00.331Z,17.20
2022-08-19T01:05:00.509Z,17.22
2022-08-19T01:06:00.658Z,17.23
2022-08-19T01:07:00.813Z,17.10
2022-08-19T01:08:00.946Z,17.14
2022-08-19T01:09:01.951Z,17.20
2022-08-19T01:10:01.298Z,17.22
2022-08-19T01:11:01.950Z,17.18
2022-08-19T01:12:01.555Z,17.18
2022-08-19T01:13:02.450Z,17.23
2022-08-19T01:14:01.921Z,17.28
2022-08-19T01:15:02.460Z,17.15
2022-08-19T01:16:02.330Z,17.11
2022-08-19T01:17:02.479Z,17.18
2022-08-19T01:18:02.614Z,17.15
2022-08-19T01:19:02.737Z,17.20
2022-08-19T01:20:02.877Z,17.06
2022-08-19T01:21:03.022Z,17.22
2022-08-19T01:22:04.102Z,17.13
2022-08-19T01:23:04.311Z,17.00
2022-08-19T01:24:03.420Z,17.15
2022-08-19T01:25:04.446Z,17.18
2022-08-19T01:26:04.796Z,17.13
2022-08-19T01:27:04.454Z,17.23
2022-08-19T01:28:07.224Z,17.07
2022-08-19T01:29:05.387Z,17.08
2022-08-19T01:30:04.500Z,17.18
2022-08-19T01:31:08.047Z,17.18
2022-08-19T01:32:04.743Z,17.20
2022-08-19T01:33:05.460Z,17.15
2022-08-19T01:34:05.082Z,17.14
2022-08-19T01:35:05.322Z,17.15
2022-08-19T01:36:05.576Z,17.20
2022-08-19T01:37:05.721Z,17.18
2022-08-19T01:38:05.841Z,17.17
2022-08-19T01:39:06.000Z,17.17
2022-08-19T01:40:09.306Z,17.08
2022-08-19T01:41:10.990Z,17.11
2022-08-19T01:42:06.600Z,17.10
2022-08-19T01:43:06.702Z,17.11
2022-08-19T01:44:17.681Z,16.99
2022-08-19T01:45:08.171Z,17.06
2022-08-19T01:46:07.958Z,17.03
2022-08-19T01:47:07.974Z,17.06
2022-08-19T01:48:07.729Z,17.08
2022-08-19T01:49:08.492Z,17.04
2022-08-19T01:50:07.987Z,16.99
2022-08-19T01:51:08.107Z,17.04
2022-08-19T01:52:08.966Z,16.99
2022-08-19T01:53:08.475Z,17.04
2022-08-19T01:54:09.466Z,17.04
2022-08-19T01:55:08.982Z,17.04
2022-08-19T01:56:09.019Z,16.99
2022-08-19T01:57:09.961Z,17.04
2022-08-19T01:58:09.330Z,16.96
2022-08-19T01:59:09.466Z,16.96
2022-08-19T02:00:09.707Z,16.96
2022-08-19T02:01:09.868Z,16.98
2022-08-19T02:02:09.990Z,16.99
2022-08-19T02:03:10.159Z,16.95
2022-08-19T02:04:10.332Z,16.90
2022-08-19T02:05:11.209Z,16.95
2022-08-19T02:06:11.463Z,16.92
2022-08-19T02:07:10.859Z,16.98
2022-08-19T02:08:11.014Z,16.96
2022-08-19T02:09:11.166Z,17.06
2022-08-19T02:10:12.591Z,16.96
2022-08-19T02:11:12.968Z,16.93
2022-08-19T02:12:11.581Z,16.95
2022-08-19T02:13:11.700Z,16.99
2022-08-19T02:14:11.840Z,16.92
2022-08-19T02:15:11.979Z,16.96
2022-08-19T02:16:12.125Z,16.95
2022-08-19T02:17:12.251Z,16.93
2022-08-19T02:18:12.450Z,16.93
2022-08-19T02:19:12.605Z,16.92
2022-08-19T02:20:12.737Z,16.92
2022-08-19T02:21:12.976Z,16.92
2022-08-19T02:22:13.210Z,16.93
2022-08-19T02:23:16.026Z,16.92
2022-08-19T02:24:13.669Z,16.96
2022-08-19T02:25:13.773Z,16.88
2022-08-19T02:26:14.478Z,16.92
2022-08-19T02:27:14.085Z,16.88
2022-08-19T02:28:18.345Z,16.88
2022-08-19T02:29:15.335Z,16.93
2022-08-19T02:30:14.615Z,16.93
2022-08-19T02:31:14.742Z,16.92
2022-08-19T02:32:14.879Z,16.92
2022-08-19T02:33:14.994Z,16.92
2022-08-19T02:34:15.215Z,16.95
2022-08-19T02:35:15.340Z,16.83
2022-08-19T02:36:15.633Z,16.86
2022-08-19T02:37:16.474Z,16.90
2022-08-19T02:38:15.851Z,16.83
2022-08-19T02:39:16.004Z,16.90
2022-08-19T02:40:16.530Z,16.95
2022-08-19T02:41:16.974Z,16.93
2022-08-19T02:42:16.493Z,16.92
2022-08-19T02:43:16.984Z,16.88
2022-08-19T02:44:30.136Z,16.88
2022-08-19T02:45:18.067Z,16.88
2022-08-19T02:46:17.982Z,16.95
2022-08-19T02:47:17.977Z,16.90
2022-08-19T02:48:21.601Z,16.86
2022-08-19T02:49:17.811Z,16.93
2022-08-19T02:50:17.928Z,16.81
2022-08-19T02:51:18.168Z,16.90
2022-08-19T02:52:18.455Z,16.86
2022-08-19T02:53:19.480Z,16.96
2022-08-19T02:54:18.715Z,16.83
2022-08-19T02:55:19.482Z,16.90
2022-08-19T02:56:19.076Z,16.88
2022-08-19T02:57:19.334Z,16.89
2022-08-19T02:58:19.438Z,16.95
2022-08-19T02:59:20.328Z,16.95
2022-08-19T03:00:19.993Z,16.81
2022-08-19T03:01:19.901Z,16.81
2022-08-19T03:02:20.983Z,16.86
2022-08-19T03:03:20.185Z,17.00
2022-08-19T03:04:20.445Z,16.92
2022-08-19T03:05:20.613Z,16.92
2022-08-19T03:06:22.482Z,16.92
2022-08-19T03:07:21.485Z,16.88
2022-08-19T03:08:21.106Z,16.88
2022-08-19T03:09:21.345Z,16.88
2022-08-19T03:10:21.987Z,16.88
2022-08-19T03:11:22.488Z,16.92
2022-08-19T03:12:21.826Z,16.85
2022-08-19T03:13:21.945Z,16.89
2022-08-19T03:14:22.084Z,16.92
2022-08-19T03:15:22.204Z,16.86
2022-08-19T03:16:22.472Z,16.92
2022-08-19T03:17:22.587Z,16.89
2022-08-19T03:18:23.348Z,16.77
2022-08-19T03:19:23.061Z,16.83
2022-08-19T03:20:23.191Z,16.85
2022-08-19T03:21:23.322Z,16.78
2022-08-19T03:22:23.498Z,16.81
2022-08-19T03:23:23.634Z,16.78
2022-08-19T03:24:23.878Z,16.71
2022-08-19T03:25:24.018Z,16.80
2022-08-19T03:26:24.147Z,16.80
2022-08-19T03:27:24.398Z,16.77
2022-08-19T03:28:25.493Z,16.81
2022-08-19T03:29:30.124Z,16.83
2022-08-19T03:30:25.846Z,16.78
2022-08-19T03:31:43.832Z,16.73
2022-08-19T03:32:33.095Z,16.75
2022-08-19T03:33:28.498Z,16.85
2022-08-19T03:34:25.757Z,16.77
2022-08-19T03:35:26.505Z,16.81
2022-08-19T03:36:26.133Z,16.70
2022-08-19T03:37:26.507Z,16.81
2022-08-19T03:38:26.524Z,16.78
2022-08-19T03:39:26.666Z,16.74
2022-08-19T03:40:26.895Z,16.77
2022-08-19T03:41:27.127Z,16.70
2022-08-19T03:42:38.374Z,16.68
2022-08-19T03:43:29.517Z,16.62
2022-08-19T03:44:27.778Z,16.62
2022-08-19T03:45:27.936Z,16.70
2022-08-19T03:46:28.032Z,16.70
2022-08-19T03:47:28.166Z,16.63
2022-08-19T03:48:28.334Z,16.65
2022-08-19T03:49:29.145Z,16.75
2022-08-19T03:50:28.665Z,16.74
2022-08-19T03:51:30.633Z,16.67
2022-08-19T03:52:28.944Z,16.75
2022-08-19T03:53:29.100Z,16.70
2022-08-19T03:54:29.257Z,16.60
2022-08-19T03:55:29.392Z,16.60
2022-08-19T03:56:29.535Z,16.62
2022-08-19T03:57:31.731Z,16.59
2022-08-19T03:58:29.850Z,16.52
2022-08-19T03:59:30.040Z,16.60
2022-08-19T04:00:30.174Z,16.62
2022-08-19T04:01:35.159Z,16.59
2022-08-19T04:02:31.648Z,16.58
2022-08-19T04:03:30.859Z,16.56
2022-08-19T04:04:31.916Z,16.53
2022-08-19T04:05:31.182Z,16.60
2022-08-19T04:06:31.313Z,16.68
2022-08-19T04:07:31.430Z,16.65
2022-08-19T04:08:32.659Z,16.62
2022-08-19T04:09:31.878Z,16.53
2022-08-19T04:10:31.992Z,16.62
2022-08-19T04:11:42.654Z,16.56
2022-08-19T04:12:34.004Z,16.62
2022-08-19T04:13:32.442Z,16.70
2022-08-19T04:14:32.580Z,16.63
2022-08-19T04:15:32.723Z,16.67
2022-08-19T04:16:35.263Z,16.63
2022-08-19T04:17:33.506Z,16.60
2022-08-19T04:18:36.366Z,16.56
2022-08-19T04:19:34.326Z,16.60
2022-08-19T04:20:34.022Z,16.60
2022-08-19T04:21:33.751Z,16.59
2022-08-19T04:22:33.874Z,16.62
2022-08-19T04:23:34.025Z,16.55
2022-08-19T04:24:34.173Z,16.55
2022-08-19T04:25:34.312Z,16.56
2022-08-19T04:26:34.559Z,16.59
2022-08-19T04:27:35.020Z,16.58
2022-08-19T04:28:35.517Z,16.60
2022-08-19T04:29:35.017Z,16.60
2022-08-19T04:30:35.157Z,16.58
2022-08-19T04:31:36.012Z,16.62
2022-08-19T04:32:35.541Z,16.59
2022-08-19T04:33:35.665Z,16.63
2022-08-19T04:34:35.807Z,16.55
2022-08-19T04:35:35.947Z,16.60
2022-08-19T04:36:36.073Z,16.58
2022-08-19T04:37:36.252Z,16.63
2022-08-19T04:38:36.389Z,16.71
2022-08-19T04:39:37.555Z,16.70
2022-08-19T04:40:36.690Z,16.70
2022-08-19T04:41:37.024Z,16.71
2022-08-19T04:42:37.030Z,16.59
2022-08-19T04:43:37.176Z,16.77
2022-08-19T04:44:38.948Z,16.59
2022-08-19T04:45:43.491Z,16.71
2022-08-19T04:46:39.903Z,16.68
2022-08-19T04:47:51.435Z,16.71
2022-08-19T04:48:43.407Z,16.60
2022-08-19T04:49:39.306Z,16.63
2022-08-19T04:50:38.424Z,16.74
2022-08-19T04:51:38.609Z,16.70
2022-08-19T04:52:38.757Z,16.71
2022-08-19T04:53:38.917Z,16.71
2022-08-19T04:54:39.515Z,16.78
2022-08-19T04:55:41.016Z,16.70
2022-08-19T04:56:39.550Z,16.83
2022-08-19T04:57:39.702Z,16.74
2022-08-19T04:58:39.851Z,16.77
2022-08-19T04:59:40.536Z,16.78
2022-08-19T05:00:40.244Z,16.73
2022-08-19T05:01:41.024Z,16.83
2022-08-19T05:02:40.536Z,16.83
2022-08-19T05:03:40.690Z,16.88
2022-08-19T05:04:40.867Z,16.80
2022-08-19T05:05:45.033Z,16.95
2022-08-19T05:06:41.218Z,16.89
2022-08-19T05:07:41.368Z,16.96
2022-08-19T05:08:41.515Z,16.86
2022-08-19T05:09:58.510Z,16.92
2022-08-19T05:10:43.045Z,16.81
2022-08-19T05:11:42.526Z,16.83
2022-08-19T05:12:42.135Z,16.90
2022-08-19T05:13:42.257Z,16.85
2022-08-19T05:14:43.021Z,16.89
2022-08-19T05:15:42.531Z,16.88
2022-08-19T05:16:43.522Z,16.92
2022-08-19T05:17:43.525Z,16.92
2022-08-19T05:18:43.000Z,16.98
2022-08-19T05:19:43.147Z,17.00
2022-08-19T05:20:43.543Z,17.00
2022-08-19T05:21:43.516Z,17.07
2022-08-19T05:22:43.763Z,17.07
2022-08-19T05:23:43.892Z,17.11
2022-08-19T05:25:02.400Z,17.08
2022-08-19T05:25:46.542Z,17.08
2022-08-19T05:26:44.544Z,17.10
2022-08-19T05:27:44.544Z,17.08
2022-08-19T05:28:44.687Z,17.17
2022-08-19T05:29:45.530Z,17.15
2022-08-19T05:30:47.419Z,17.23
2022-08-19T05:31:46.216Z,17.20
2022-08-19T05:32:45.469Z,17.22
2022-08-19T05:33:45.601Z,17.23
2022-08-19T05:34:45.845Z,17.29
2022-08-19T05:35:45.976Z,17.35
2022-08-19T05:36:47.032Z,17.32
2022-08-19T05:37:46.552Z,17.29
2022-08-19T05:38:46.430Z,17.38
2022-08-19T05:39:51.291Z,17.38
2022-08-19T05:40:49.533Z,17.33
2022-08-19T05:41:47.534Z,17.36
2022-08-19T05:42:47.163Z,17.44
2022-08-19T05:43:48.331Z,17.43
2022-08-19T05:44:47.572Z,17.47
2022-08-19T05:45:47.699Z,17.50
2022-08-19T05:46:47.832Z,17.50
2022-08-19T05:47:47.963Z,17.47
2022-08-19T05:48:48.195Z,17.55
2022-08-19T05:49:48.365Z,17.53
2022-08-19T05:50:49.035Z,17.55
2022-08-19T05:51:48.642Z,17.66
2022-08-19T05:52:48.770Z,17.67
2022-08-19T05:53:48.985Z,17.69
2022-08-19T05:54:51.501Z,17.63
2022-08-19T05:55:49.348Z,17.69
2022-08-19T05:56:49.498Z,17.73
2022-08-19T05:57:49.616Z,17.81
2022-08-19T05:58:49.738Z,17.79
2022-08-19T05:59:52.641Z,17.78
2022-08-19T06:00:50.072Z,17.82
2022-08-19T06:01:50.196Z,17.94
2022-08-19T06:02:50.485Z,17.84
2022-08-19T06:03:50.541Z,17.82
2022-08-19T06:04:50.665Z,18.03
2022-08-19T06:05:52.056Z,18.02
2022-08-19T06:06:51.040Z,18.00
2022-08-19T06:07:52.132Z,18.09
2022-08-19T06:08:51.392Z,18.04
2022-08-19T06:09:59.337Z,18.04
2022-08-19T06:10:52.728Z,18.06
2022-08-19T06:11:55.741Z,18.10
2022-08-19T06:12:53.135Z,18.09
2022-08-19T06:13:59.339Z,18.17
2022-08-19T06:15:00.631Z,18.22
2022-08-19T06:15:53.785Z,18.21
2022-08-19T06:16:53.545Z,18.36
2022-08-19T06:17:53.283Z,18.39
2022-08-19T06:18:53.384Z,18.39
2022-08-19T06:19:54.042Z,18.47
2022-08-19T06:20:55.830Z,18.49
2022-08-19T06:21:54.833Z,18.59
2022-08-19T06:22:54.550Z,18.54
2022-08-19T06:23:54.193Z,18.72
2022-08-19T06:24:55.129Z,18.70
2022-08-19T06:25:54.536Z,18.73
2022-08-19T06:26:57.931Z,18.83
2022-08-19T06:28:14.139Z,18.97
2022-08-19T06:28:57.040Z,19.02
2022-08-19T06:29:55.280Z,19.11
2022-08-19T06:30:55.442Z,19.20
2022-08-19T06:31:55.587Z,19.32
2022-08-19T06:32:55.743Z,19.50
2022-08-19T06:33:55.923Z,19.54
2022-08-19T06:34:56.080Z,19.58
2022-08-19T06:35:57.048Z,19.65
2022-08-19T06:36:56.423Z,19.69
2022-08-19T06:37:56.745Z,19.86
2022-08-19T06:38:56.775Z,19.93
2022-08-19T06:39:57.594Z,20.03
2022-08-19T06:40:57.568Z,20.18
2022-08-19T06:41:58.979Z,20.27
2022-08-19T06:42:59.341Z,20.27
2022-08-19T06:43:57.722Z,20.42
2022-08-19T06:44:58.558Z,20.62
2022-08-19T06:45:58.566Z,20.72
2022-08-19T06:46:58.586Z,20.68
2022-08-19T06:47:58.401Z,20.76
2022-08-19T06:48:58.598Z,20.90
2022-08-19T06:50:01.461Z,21.04
2022-08-19T06:50:58.987Z,21.11
2022-08-19T06:51:59.120Z,21.30
2022-08-19T06:53:01.493Z,21.45
2022-08-19T06:54:00.396Z,21.54
2022-08-19T06:54:59.716Z,21.67
2022-08-19T06:55:59.749Z,21.81
2022-08-19T06:57:00.077Z,21.82
2022-08-19T06:58:01.062Z,21.92
2022-08-19T06:59:00.351Z,21.97
2022-08-19T07:00:01.085Z,22.04
2022-08-19T07:01:03.439Z,22.13
2022-08-19T07:02:00.906Z,22.37
2022-08-19T07:03:06.197Z,22.34
2022-08-19T07:04:03.274Z,22.43
2022-08-19T07:05:03.070Z,22.65
2022-08-19T07:06:01.555Z,23.09
2022-08-19T07:07:19.531Z,23.68
2022-08-19T07:08:05.104Z,24.10
2022-08-19T07:09:03.104Z,24.23
2022-08-19T07:10:04.923Z,24.32
2022-08-19T07:11:03.586Z,24.23
2022-08-19T07:12:03.771Z,24.07
2022-08-19T07:13:02.980Z,23.86
2022-08-19T07:14:03.200Z,23.79
2022-08-19T07:15:03.363Z,23.47
2022-08-19T07:16:05.657Z,23.23
2022-08-19T07:17:03.641Z,23.12
2022-08-19T07:18:03.779Z,23.04
2022-08-19T07:19:11.822Z,22.65
2022-08-19T07:20:09.350Z,22.39
2022-08-19T07:21:04.270Z,22.31
2022-08-19T07:22:04.443Z,22.27
2022-08-19T07:23:07.241Z,22.13
2022-08-19T07:24:07.159Z,22.02
2022-08-19T07:25:05.041Z,21.90
2022-08-19T07:26:05.582Z,21.92
2022-08-19T07:27:06.801Z,21.85
2022-08-19T07:28:06.392Z,21.82
2022-08-19T07:29:06.614Z,21.98
2022-08-19T07:30:05.771Z,21.95
2022-08-19T07:31:05.931Z,21.88
2022-08-19T07:32:06.078Z,22.02
2022-08-19T07:33:08.070Z,22.13
2022-08-19T07:34:06.422Z,21.97
2022-08-19T07:35:06.588Z,21.88
2022-08-19T07:36:06.801Z,21.83
2022-08-19T07:37:06.969Z,21.94
2022-08-19T07:38:07.136Z,21.90
2022-08-19T07:39:07.297Z,21.81
2022-08-19T07:40:08.125Z,21.79
2022-08-19T07:41:07.689Z,21.90
2022-08-19T07:42:07.844Z,21.81
2022-08-19T07:43:11.199Z,21.83
2022-08-19T07:44:09.104Z,21.75
2022-08-19T07:45:08.238Z,21.82
2022-08-19T07:47:48.376Z,21.76
2022-08-19T07:48:09.729Z,21.67
2022-08-19T07:49:08.859Z,21.83
2022-08-19T07:50:09.019Z,21.97
2022-08-19T07:51:10.079Z,22.01
2022-08-19T07:52:09.317Z,22.12
2022-08-19T07:53:09.594Z,22.09
2022-08-19T07:54:09.617Z,22.13
2022-08-19T07:55:40.228Z,22.09
2022-08-19T07:56:10.895Z,22.14
2022-08-19T07:57:10.125Z,22.27
2022-08-19T07:58:10.590Z,22.27
2022-08-19T07:59:10.501Z,22.27
2022-08-19T08:00:10.658Z,22.35
2022-08-19T08:01:10.823Z,22.65
2022-08-19T08:02:11.990Z,22.74
2022-08-19T08:03:11.100Z,22.82
2022-08-19T08:04:11.257Z,22.94
2022-08-19T08:05:12.433Z,23.05
2022-08-19T08:06:12.108Z,23.19
2022-08-19T08:07:12.590Z,23.47
2022-08-19T08:08:12.096Z,23.61
2022-08-19T08:09:12.199Z,23.72
2022-08-19T08:10:20.818Z,23.83
2022-08-19T08:11:15.687Z,23.90
2022-08-19T08:12:33.016Z,24.12
2022-08-19T08:13:14.945Z,24.13
2022-08-19T08:14:28.978Z,24.22
2022-08-19T08:15:14.335Z,24.08
2022-08-19T08:16:14.540Z,24.08
2022-08-19T08:17:13.631Z,24.13
2022-08-19T08:18:13.777Z,24.13
2022-08-19T08:19:20.200Z,24.50
2022-08-19T08:20:15.141Z,24.60
2022-08-19T08:21:14.273Z,24.35
2022-08-19T08:22:14.424Z,24.24
2022-08-19T08:23:14.574Z,24.16
2022-08-19T08:24:15.592Z,24.24
2022-08-19T08:25:14.948Z,24.12
2022-08-19T08:26:15.086Z,24.05
2022-08-19T08:27:15.188Z,23.92
2022-08-19T08:28:17.881Z,23.80
2022-08-19T08:29:16.092Z,23.71
2022-08-19T08:30:15.701Z,23.71
2022-08-19T08:31:16.109Z,23.75
2022-08-19T08:32:16.014Z,23.76
2022-08-19T08:34:16.332Z,23.92
2022-08-19T08:35:17.120Z,23.97
2022-08-19T08:36:16.649Z,24.02
2022-08-19T08:37:16.798Z,24.05
2022-08-19T08:38:16.935Z,24.05
2022-08-19T08:39:17.117Z,24.02
2022-08-19T08:40:17.320Z,24.04
2022-08-19T08:41:17.407Z,24.08
2022-08-19T08:42:17.880Z,24.04
2022-08-19T08:43:17.785Z,24.00
2022-08-19T08:44:19.967Z,24.01
2022-08-19T08:45:19.123Z,23.85
2022-08-19T08:46:31.094Z,23.83
2022-08-19T08:47:19.609Z,23.82
2022-08-19T08:48:23.872Z,23.83
2022-08-19T08:49:19.997Z,23.79
2022-08-19T08:50:19.131Z,23.80
2022-08-19T08:51:20.250Z,23.70
2022-08-19T08:52:20.102Z,23.67
2022-08-19T08:53:26.327Z,23.72
2022-08-19T08:54:21.126Z,23.70
2022-08-19T08:55:21.135Z,23.77
2022-08-19T08:56:21.191Z,23.65
2022-08-19T08:57:20.619Z,23.57
2022-08-19T08:58:21.115Z,23.42
2022-08-19T08:59:20.853Z,23.45
2022-08-19T09:00:21.005Z,23.31
2022-08-19T09:01:22.145Z,23.29
2022-08-19T09:02:22.102Z,23.29
2022-08-19T09:03:21.624Z,23.35
2022-08-19T09:04:21.722Z,23.19
2022-08-19T09:05:26.030Z,23.17
2022-08-19T09:06:22.063Z,23.27
2022-08-19T09:07:35.014Z,23.14
2022-08-19T09:08:24.106Z,23.08
2022-08-19T09:09:22.623Z,23.05
2022-08-19T09:10:25.823Z,23.05
2022-08-19T09:11:42.713Z,23.19
2022-08-19T09:12:26.720Z,23.20
2022-08-19T09:13:23.329Z,23.09
2022-08-19T09:14:49.151Z,23.12
2022-08-19T09:15:28.852Z,23.02
2022-08-19T09:16:27.698Z,23.01
2022-08-19T09:17:24.612Z,22.96
2022-08-19T09:18:24.352Z,22.94
2022-08-19T09:19:24.475Z,22.97
2022-08-19T09:20:26.163Z,23.02
2022-08-19T09:21:30.289Z,23.09
2022-08-19T09:22:27.378Z,23.23
2022-08-19T09:23:27.051Z,23.20
2022-08-19T09:24:25.471Z,23.24
2022-08-19T09:25:29.456Z,23.29
2022-08-19T09:26:35.284Z,23.45
2022-08-19T09:27:42.155Z,23.46
2022-08-19T09:28:27.508Z,23.47
2022-08-19T09:29:26.414Z,23.46
2022-08-19T09:30:27.122Z,23.61
2022-08-19T09:31:26.889Z,23.60
2022-08-19T09:32:27.618Z,23.47
2022-08-19T09:33:28.123Z,23.43
2022-08-19T09:34:28.138Z,23.42
2022-08-19T09:35:28.313Z,23.53
2022-08-19T09:36:34.416Z,23.55
2022-08-19T09:37:29.623Z,23.57
2022-08-19T09:38:28.617Z,23.77
2022-08-19T09:39:36.124Z,23.92
2022-08-19T09:40:30.254Z,23.87
2022-08-19T09:41:28.792Z,24.00
2022-08-19T09:42:30.002Z,24.12
2022-08-19T09:43:33.589Z,24.23
2022-08-19T09:44:30.119Z,24.34
2022-08-19T09:45:29.337Z,24.27
2022-08-19T09:46:30.125Z,24.27
2022-08-19T09:47:29.633Z,24.26
2022-08-19T09:48:29.716Z,24.26
2022-08-19T09:49:29.834Z,24.27
2022-08-19T09:50:30.072Z,24.35
2022-08-19T09:51:31.126Z,24.24
2022-08-19T09:52:32.754Z,24.32
2022-08-19T09:53:30.641Z,24.31
2022-08-19T09:54:30.749Z,24.42
2022-08-19T09:55:32.734Z,24.41
2022-08-19T09:56:31.626Z,24.42
2022-08-19T09:57:31.262Z,24.24
2022-08-19T09:58:32.437Z,24.34
2022-08-19T09:59:31.582Z,24.29
2022-08-19T10:00:32.633Z,24.24
2022-08-19T10:01:31.910Z,24.07
2022-08-19T10:02:32.081Z,23.92
2022-08-19T10:03:32.251Z,23.87
2022-08-19T10:04:32.645Z,23.90
2022-08-19T10:05:33.126Z,23.90
2022-08-19T10:06:45.578Z,23.97
2022-08-19T10:08:05.907Z,24.04
2022-08-19T10:08:34.126Z,24.12
2022-08-19T10:09:35.068Z,24.26
2022-08-19T10:10:33.388Z,24.37
2022-08-19T10:11:36.354Z,24.56
2022-08-19T10:12:34.617Z,24.59
2022-08-19T10:13:33.750Z,24.75
2022-08-19T10:14:34.732Z,24.88
2022-08-19T10:15:34.133Z,24.80
2022-08-19T10:16:37.173Z,24.98
2022-08-19T10:17:34.458Z,25.05
2022-08-19T10:18:34.583Z,25.30
2022-08-19T10:19:35.192Z,25.19
2022-08-19T10:20:35.704Z,25.01
2022-08-19T10:21:35.094Z,24.73
2022-08-19T10:22:36.198Z,24.77
2022-08-19T10:23:36.170Z,24.52
2022-08-19T10:24:36.173Z,24.49
2022-08-19T10:25:36.691Z,24.60
2022-08-19T10:26:36.179Z,24.67
2022-08-19T10:27:36.688Z,24.79
2022-08-19T10:28:37.176Z,24.91
2022-08-19T10:29:37.182Z,25.01
2022-08-19T10:30:37.786Z,25.01
2022-08-19T10:32:00.558Z,24.94
2022-08-19T10:32:38.041Z,24.91
2022-08-19T10:33:53.182Z,25.00
2022-08-19T10:34:38.484Z,24.73
2022-08-19T10:35:42.525Z,24.52
2022-08-19T10:36:39.676Z,24.42
2022-08-19T10:37:44.937Z,24.12
2022-08-19T10:38:39.276Z,24.04
2022-08-19T10:39:43.177Z,24.04
2022-08-19T10:40:38.661Z,24.34
2022-08-19T10:41:38.836Z,24.50
2022-08-19T10:42:39.007Z,24.76
2022-08-19T10:43:39.155Z,25.05
2022-08-19T10:44:39.363Z,25.20
2022-08-19T10:45:52.305Z,25.50
2022-08-19T10:46:40.679Z,25.49
2022-08-19T10:47:39.841Z,25.35
2022-08-19T10:48:40.029Z,25.30
2022-08-19T10:49:41.178Z,25.02
2022-08-19T10:50:40.445Z,24.95
2022-08-19T10:51:46.581Z,24.54
2022-08-19T10:52:50.201Z,24.39
2022-08-19T10:53:42.081Z,24.35
2022-08-19T10:54:42.185Z,24.42
2022-08-19T10:55:41.313Z,24.53
2022-08-19T10:56:42.185Z,24.50
2022-08-19T10:58:01.199Z,24.67
2022-08-19T10:58:43.817Z,25.01
2022-08-19T10:59:41.988Z,25.24
2022-08-19T11:00:42.133Z,25.42
2022-08-19T11:01:43.183Z,25.71
2022-08-19T11:02:42.501Z,26.04
2022-08-19T11:03:42.655Z,26.24
2022-08-19T11:04:43.201Z,26.49
2022-08-19T11:05:42.945Z,26.59
2022-08-19T11:06:43.099Z,26.77
2022-08-19T11:07:44.193Z,26.91
2022-08-19T11:08:44.185Z,26.87
2022-08-19T11:09:43.701Z,26.69
2022-08-19T11:10:50.286Z,26.67
2022-08-19T11:11:45.713Z,26.59
2022-08-19T11:12:44.065Z,26.58
2022-08-19T11:13:44.193Z,26.62
2022-08-19T11:14:44.702Z,26.61
2022-08-19T11:15:44.472Z,26.77
2022-08-19T11:16:44.596Z,26.89
2022-08-19T11:17:44.887Z,27.11
2022-08-19T11:18:44.945Z,27.23
2022-08-19T11:19:45.695Z,27.35
2022-08-19T11:20:45.211Z,27.47
2022-08-19T11:21:45.361Z,27.36
2022-08-19T11:22:45.602Z,27.35
2022-08-19T11:23:46.699Z,27.09
2022-08-19T11:24:45.917Z,26.89
2022-08-19T11:25:46.188Z,26.68
2022-08-19T11:26:47.192Z,26.42
2022-08-19T11:27:46.528Z,26.15
2022-08-19T11:28:46.701Z,26.05
2022-08-19T11:29:46.870Z,25.90
2022-08-19T11:30:47.022Z,25.86
2022-08-19T11:31:47.699Z,25.64
2022-08-19T11:32:49.541Z,25.50
2022-08-19T11:33:48.455Z,25.27
2022-08-19T11:34:48.200Z,25.09
2022-08-19T11:35:47.721Z,25.06
2022-08-19T11:36:48.697Z,25.16
2022-08-19T11:37:48.252Z,25.06
2022-08-19T11:38:48.270Z,25.31
2022-08-19T11:39:51.338Z,25.52
2022-08-19T11:40:49.519Z,25.67
2022-08-19T11:41:48.651Z,25.86
2022-08-19T11:42:48.856Z,25.98
2022-08-19T11:43:49.020Z,25.93
2022-08-19T11:44:49.214Z,25.91
2022-08-19T11:45:50.228Z,25.89
2022-08-19T11:46:49.485Z,25.71
2022-08-19T11:47:50.306Z,25.72
2022-08-19T11:48:49.743Z,25.54
2022-08-19T11:49:49.917Z,25.56
2022-08-19T11:50:50.062Z,25.46
2022-08-19T11:51:50.225Z,25.39
2022-08-19T11:52:51.203Z,25.07
2022-08-19T11:53:50.574Z,24.79
2022-08-19T11:54:51.217Z,24.76
2022-08-19T11:55:51.708Z,24.69
2022-08-19T11:56:51.213Z,24.79
2022-08-19T11:57:51.359Z,24.77
2022-08-19T11:58:52.206Z,24.76
2022-08-19T11:59:51.751Z,24.75
2022-08-19T12:00:51.909Z,24.79
2022-08-19T12:01:53.085Z,24.69
2022-08-19T12:02:53.216Z,24.67
2022-08-19T12:03:52.573Z,24.61
2022-08-19T12:04:52.721Z,24.54
2022-08-19T12:05:52.926Z,24.73
2022-08-19T12:06:53.079Z,24.82
2022-08-19T12:07:53.453Z,25.05
2022-08-19T12:08:53.432Z,25.24
2022-08-19T12:09:54.225Z,25.47
2022-08-19T12:10:53.832Z,25.82
2022-08-19T12:11:54.712Z,26.08
2022-08-19T12:12:58.562Z,26.36
2022-08-19T12:13:54.228Z,26.43
2022-08-19T12:14:54.363Z,26.43
2022-08-19T12:15:54.508Z,26.36
2022-08-19T12:16:54.663Z,26.31
2022-08-19T12:17:55.139Z,26.04
2022-08-19T12:18:55.737Z,25.69
2022-08-19T12:19:56.213Z,25.62
2022-08-19T12:20:56.220Z,25.84
2022-08-19T12:21:56.218Z,25.99
2022-08-19T12:22:55.835Z,26.27
2022-08-19T12:23:56.096Z,26.50
2022-08-19T12:24:56.219Z,26.77
2022-08-19T12:25:56.380Z,26.84
2022-08-19T12:27:00.918Z,26.87
2022-08-19T12:27:57.899Z,26.83
2022-08-19T12:28:57.904Z,26.87
2022-08-19T12:29:57.733Z,26.94
2022-08-19T12:30:58.246Z,26.80
2022-08-19T12:31:57.489Z,26.57
2022-08-19T12:32:57.633Z,26.32
2022-08-19T12:33:57.731Z,25.93
2022-08-19T12:34:57.862Z,25.74
2022-08-19T12:35:57.983Z,25.59
2022-08-19T12:36:58.130Z,25.56
2022-08-19T12:37:59.429Z,25.53
2022-08-19T12:38:58.383Z,25.32
2022-08-19T12:39:58.663Z,25.37
2022-08-19T12:41:00.384Z,25.35
2022-08-19T12:41:59.988Z,25.68
2022-08-19T12:43:00.181Z,25.90
2022-08-19T12:43:59.388Z,26.05
2022-08-19T12:45:00.228Z,26.40
2022-08-19T12:45:59.738Z,26.54
2022-08-19T12:47:00.919Z,26.77
2022-08-19T12:48:00.730Z,26.76
2022-08-19T12:49:00.266Z,26.91
2022-08-19T12:50:03.428Z,26.99
2022-08-19T12:51:01.742Z,27.09
2022-08-19T12:52:00.734Z,27.19
2022-08-19T12:53:01.275Z,27.36
2022-08-19T12:54:01.027Z,27.42
2022-08-19T12:55:01.144Z,27.51
2022-08-19T12:56:01.277Z,27.43
2022-08-19T12:57:02.237Z,27.31